Time;durP1;ratioP1;P1;durP2;ratioP2;P2;SDS_P1;SDS_P2;PMS_P1;PMS_P2;Temp;Humidity;BMP_temperature;BMP_pressure;BME280_temperature;BME280_humidity;BME280_pressure;Samples;Min_cycle;Max_cycle;Signal;HPM_P1;HPM_P2
2022/09/28 00:02:24;;;;;;;4.40;3.10;;;;;;;14.87;100.00;93893.25;5030638;28;20455;-79
2022/09/28 00:04:51;;;;;;;3.40;2.73;;;;;;;14.83;100.00;93891.97;5071353;28;20506;-80
2022/09/28 00:07:17;;;;;;;6.53;3.10;;;;;;;14.90;100.00;93883.31;5092766;28;20440;-79
2022/09/28 00:09:44;;;;;;;5.43;2.90;;;;;;;14.89;100.00;93871.94;5092575;28;20448;-78
2022/09/28 00:12:11;;;;;;;3.25;2.95;;;;;;;14.92;100.00;93876.84;5092517;28;20437;-79
2022/09/28 00:14:41;;;;;;;7.37;3.47;;;;;;;14.93;100.00;93869.75;5092761;28;20224;-79
2022/09/28 00:17:08;;;;;;;4.60;2.87;;;;;;;14.88;100.00;93865.00;5092394;28;20639;-78
2022/09/28 00:19:35;;;;;;;3.70;2.77;;;;;;;14.90;100.00;93863.00;5092619;28;20925;-79
2022/09/28 00:22:02;;;;;;;2.47;2.27;;;;;;;14.96;100.00;93872.03;5092447;28;20478;-79
2022/09/28 00:24:29;;;;;;;3.20;2.93;;;;;;;14.88;100.00;93863.19;5093034;28;20456;-79
2022/09/28 00:27:00;;;;;;;3.77;2.60;;;;;;;14.94;100.00;93868.75;5096471;28;20435;-79
2022/09/28 00:29:28;;;;;;;3.00;2.37;;;;;;;14.93;100.00;93877.66;5096402;28;20444;-78
2022/09/28 00:32:01;;;;;;;3.03;2.83;;;;;;;14.84;100.00;93867.19;5096440;28;20452;-79
2022/09/28 00:34:30;;;;;;;2.97;2.77;;;;;;;14.90;100.00;93867.47;5096785;28;20450;-79
2022/09/28 00:36:57;;;;;;;11.30;3.00;;;;;;;14.80;100.00;93868.56;5095790;28;20445;-79
2022/09/28 00:39:24;;;;;;;4.30;4.00;;;;;;;14.71;100.00;93861.69;5095957;28;20446;-78
2022/09/28 00:41:51;;;;;;;3.97;3.17;;;;;;;14.68;100.00;93856.78;5095896;28;20466;-79
2022/09/28 00:44:41;;;;;;;6.40;3.77;;;;;;;14.76;100.00;93874.41;5095862;28;20448;-79
2022/09/28 00:47:27;;;;;;;3.53;2.53;;;;;;;14.68;100.00;93866.53;5096385;28;20451;-79
2022/09/28 00:49:58;;;;;;;4.33;2.63;;;;;;;14.66;100.00;93864.06;5095666;28;20451;-80
2022/09/28 00:52:31;;;;;;;5.97;3.27;;;;;;;14.67;100.00;93863.06;5095669;28;20443;-80
2022/09/28 00:55:02;;;;;;;5.67;3.90;;;;;;;14.70;100.00;93868.00;5095738;28;20460;-79
2022/09/28 00:57:30;;;;;;;3.10;2.80;;;;;;;14.68;100.00;93863.88;5095438;28;20472;-79
2022/09/28 00:59:59;;;;;;;6.43;2.70;;;;;;;14.63;100.00;93861.78;5095396;28;20453;-79
2022/09/28 01:02:27;;;;;;;4.30;3.07;;;;;;;14.64;100.00;93859.97;5095458;28;20442;-78
2022/09/28 01:04:56;;;;;;;3.00;2.80;;;;;;;14.70;100.00;93869.81;5095090;28;20445;-79
2022/09/28 01:07:24;;;;;;;3.90;2.80;;;;;;;14.66;100.00;93866.72;5095216;28;20452;-80
2022/09/28 01:09:52;;;;;;;3.77;3.40;;;;;;;14.63;100.00;93864.44;5095295;28;20443;-79
2022/09/28 01:12:19;;;;;;;7.83;3.20;;;;;;;14.61;100.00;93869.06;5095212;28;20444;-79
2022/09/28 01:14:48;;;;;;;6.20;3.17;;;;;;;14.66;100.00;93882.56;5095577;28;20554;-80
2022/09/28 01:17:16;;;;;;;2.80;2.60;;;;;;;14.66;100.00;93877.28;5095006;28;20446;-80
2022/09/28 01:20:06;;;;;;;4.77;2.73;;;;;;;14.62;100.00;93881.28;5095173;28;20455;-78
2022/09/28 01:23:11;;;;;;;10.57;3.33;;;;;;;14.64;100.00;93875.81;5094924;28;20993;-79
2022/09/28 01:25:45;;;;;;;4.43;2.50;;;;;;;14.59;100.00;93871.06;5095560;28;20450;-78
2022/09/28 01:28:16;;;;;;;7.00;2.73;;;;;;;14.61;100.00;93862.97;5094953;28;20436;-79
2022/09/28 01:30:51;;;;;;;3.00;2.70;;;;;;;14.40;100.00;93861.78;5095141;28;20452;-79
2022/09/28 01:33:22;;;;;;;3.80;2.97;;;;;;;14.48;100.00;93882.06;5095071;28;20932;-78
2022/09/28 01:35:55;;;;;;;7.10;3.20;;;;;;;14.38;100.00;93892.84;5094596;28;20440;-79
2022/09/28 01:38:28;;;;;;;5.60;3.20;;;;;;;14.10;100.00;93886.44;5095066;28;20482;-79
2022/09/28 01:40:56;;;;;;;5.30;4.10;;;;;;;13.58;100.00;93884.47;5094916;28;20456;-79
2022/09/28 01:43:27;;;;;;;5.37;4.27;;;;;;;13.73;100.00;93885.38;5094924;28;20448;-79
2022/09/28 01:45:58;;;;;;;3.53;3.10;;;;;;;13.81;100.00;93895.03;5094979;28;20653;-79
2022/09/28 01:48:32;;;;;;;4.90;4.03;;;;;;;13.85;100.00;93891.06;5094691;28;20456;-79
2022/09/28 01:51:02;;;;;;;6.80;3.70;;;;;;;13.88;100.00;93890.75;5094988;28;20448;-80
2022/09/28 01:53:35;;;;;;;3.50;3.07;;;;;;;13.82;100.00;93883.50;5094985;28;20459;-79
2022/09/28 01:56:09;;;;;;;3.87;3.40;;;;;;;13.79;100.00;93886.50;5094821;28;20505;-79
2022/09/28 01:58:40;;;;;;;3.50;3.20;;;;;;;13.70;100.00;93887.53;5094564;28;20491;-79
2022/09/28 02:01:13;;;;;;;5.93;3.30;;;;;;;13.74;100.00;93894.09;5094115;28;20444;-79
2022/09/28 02:03:48;;;;;;;4.73;3.30;;;;;;;13.76;100.00;93900.03;5094254;28;20934;-79
2022/09/28 02:06:19;;;;;;;5.80;2.73;;;;;;;13.80;100.00;93896.03;5094314;28;20810;-79
2022/09/28 02:08:52;;;;;;;3.70;3.30;;;;;;;13.83;100.00;93896.50;5094249;28;20469;-78
2022/09/28 02:11:21;;;;;;;6.77;2.97;;;;;;;13.85;100.00;93899.78;5094460;28;20474;-79
2022/09/28 02:13:53;;;;;;;3.20;2.90;;;;;;;13.89;100.00;93900.28;5094047;28;20524;-80
2022/09/28 02:16:26;;;;;;;5.53;3.17;;;;;;;13.94;100.00;93903.22;5094542;28;20462;-78
2022/09/28 02:18:53;;;;;;;4.13;3.73;;;;;;;13.96;100.00;93898.59;5093791;28;20571;-80
2022/09/28 02:21:26;;;;;;;17.67;3.40;;;;;;;13.90;100.00;93902.75;5093862;28;20992;-79
2022/09/28 02:23:57;;;;;;;5.20;3.90;;;;;;;13.84;100.00;93903.44;5043264;28;20495;-79
2022/09/28 02:26:30;;;;;;;4.90;2.80;;;;;;;13.90;100.00;93918.59;5093799;28;21011;-79
2022/09/28 02:28:58;;;;;;;7.63;3.57;;;;;;;13.75;100.00;93899.22;5093545;28;20931;-80
2022/09/28 02:31:26;;;;;;;4.40;3.70;;;;;;;13.53;100.00;93898.16;5093844;28;20451;-79
2022/09/28 02:33:55;;;;;;;6.23;3.97;;;;;;;13.58;100.00;93916.91;5093524;28;20448;-79
2022/09/28 02:36:23;;;;;;;8.10;3.73;;;;;;;13.48;100.00;93903.13;5093895;28;20444;-79
2022/09/28 02:38:49;;;;;;;11.60;3.57;;;;;;;13.23;100.00;93891.06;5093497;28;20479;-79
2022/09/28 02:41:27;;;;;;;5.53;3.50;;;;;;;13.28;100.00;93896.63;5093508;28;20444;-79
2022/09/28 02:44:07;;;;;;;3.83;3.43;;;;;;;13.28;100.00;93891.34;5093362;28;20436;-79
2022/09/28 02:46:46;;;;;;;4.10;3.30;;;;;;;13.00;100.00;93890.91;5093611;28;20828;-79
2022/09/28 02:49:24;;;;;;;6.07;3.20;;;;;;;13.05;100.00;93895.72;5093602;28;20539;-79
2022/09/28 02:52:18;;;;;;;3.83;3.50;;;;;;;13.23;100.00;93901.59;5093817;28;20448;-79
2022/09/28 02:55:13;;;;;;;3.57;3.27;;;;;;;13.18;100.00;93901.28;5092558;28;20440;-79
2022/09/28 02:57:50;;;;;;;8.47;3.37;;;;;;;13.26;100.00;93904.69;4991431;28;21034;-79
2022/09/28 03:00:20;;;;;;;4.20;3.87;;;;;;;13.22;100.00;93910.47;4958986;28;20448;-78
2022/09/28 03:02:55;;;;;;;5.07;3.30;;;;;;;13.03;100.00;93911.69;4991678;28;20521;-79
2022/09/28 03:05:25;;;;;;;4.30;4.00;;;;;;;13.10;100.00;93919.72;4991384;28;20451;-77
2022/09/28 03:07:59;;;;;;;5.40;4.33;;;;;;;13.14;100.00;93908.66;4991567;28;20448;-78
2022/09/28 03:10:33;;;;;;;11.37;4.80;;;;;;;13.13;100.00;93922.00;4991256;28;20452;-78
2022/09/28 03:13:01;;;;;;;5.77;4.50;;;;;;;12.97;100.00;93926.31;4991430;28;20939;-79
2022/09/28 03:15:31;;;;;;;5.13;4.63;;;;;;;12.89;100.00;93934.25;4991284;28;20458;-79
2022/09/28 03:18:13;;;;;;;5.80;4.80;;;;;;;12.88;100.00;93929.97;5131472;27;20351;-77
2022/09/28 03:20:40;;;;;;;5.57;5.10;;;;;;;12.93;100.00;93940.00;5131576;27;20439;-78
2022/09/28 03:23:07;;;;;;;5.80;5.20;;;;;;;12.95;100.00;93930.94;5131325;27;20456;-78
2022/09/28 03:25:34;;;;;;;4.90;4.47;;;;;;;13.05;100.00;93932.56;5131147;27;20525;-78
2022/09/28 03:28:01;;;;;;;6.60;4.60;;;;;;;13.10;100.00;93946.88;5131503;27;20463;-78
2022/09/28 03:30:28;;;;;;;8.07;5.00;;;;;;;13.13;100.00;93936.00;5131522;27;20438;-78
2022/09/28 03:32:59;;;;;;;9.93;5.67;;;;;;;12.93;100.00;93951.34;5131349;27;20454;-79
2022/09/28 03:35:27;;;;;;;5.67;4.90;;;;;;;12.94;100.00;93941.63;5131413;27;20445;-78
2022/09/28 03:37:55;;;;;;;5.90;5.27;;;;;;;12.98;100.00;93935.03;5131315;27;20478;-78
2022/09/28 03:40:22;;;;;;;5.93;5.33;;;;;;;12.98;100.00;93949.03;5131038;27;20488;-79
2022/09/28 03:42:49;;;;;;;17.40;6.07;;;;;;;13.02;100.00;93950.38;5131214;27;20442;-78
2022/09/28 03:45:16;;;;;;;6.20;5.60;;;;;;;12.89;100.00;93939.50;5130715;27;20449;-78
2022/09/28 03:47:46;;;;;;;5.43;4.93;;;;;;;13.02;100.00;93958.25;5130865;27;20442;-78
2022/09/28 03:50:13;;;;;;;19.73;6.60;;;;;;;13.02;100.00;93949.53;5130949;27;20896;-78
2022/09/28 03:52:41;;;;;;;6.20;5.37;;;;;;;13.09;100.00;93955.78;5129163;27;20451;-79
2022/09/28 03:55:08;;;;;;;6.60;5.43;;;;;;;13.09;100.00;93955.78;5127585;28;20824;-79
2022/09/28 03:57:35;;;;;;;6.73;6.07;;;;;;;13.09;100.00;93945.25;5128386;28;20481;-78
2022/09/28 04:00:03;;;;;;;6.60;6.00;;;;;;;13.14;100.00;93947.34;5130523;27;20452;-77
2022/09/28 04:02:31;;;;;;;6.10;5.60;;;;;;;13.17;100.00;93945.25;5130384;28;20492;-78
2022/09/28 04:04:58;;;;;;;12.30;6.27;;;;;;;13.28;100.00;93944.88;5129922;27;20936;-82
2022/09/28 04:07:25;;;;;;;7.80;6.43;;;;;;;13.18;100.00;93946.88;5129614;28;20445;-82
2022/09/28 04:09:53;;;;;;;11.83;5.50;;;;;;;13.22;100.00;93944.72;5098827;28;20455;-82
2022/09/28 04:12:20;;;;;;;6.43;5.80;;;;;;;13.27;100.00;93950.31;5108974;28;20455;-82
2022/09/28 04:14:47;;;;;;;7.47;5.53;;;;;;;13.33;100.00;93939.13;5109037;28;20438;-79
2022/09/28 04:17:14;;;;;;;5.07;4.57;;;;;;;13.38;100.00;93939.41;5109145;28;20487;-78
2022/09/28 04:19:40;;;;;;;8.97;5.77;;;;;;;13.36;100.00;93928.22;5109601;28;20555;-79
2022/09/28 04:22:07;;;;;;;9.80;5.67;;;;;;;13.45;100.00;93932.47;5109814;28;20442;-79
2022/09/28 04:24:34;;;;;;;7.27;5.00;;;;;;;13.48;100.00;93932.13;5109113;28;20447;-79
2022/09/28 04:29:46;;;;;;;7.60;5.43;;;;;;;13.57;100.00;93931.09;5062999;28;20428;-79
2022/09/28 04:32:13;;;;;;;7.10;5.40;;;;;;;13.58;100.00;93930.09;5095395;28;20451;-79
2022/09/28 04:34:40;;;;;;;4.87;4.30;;;;;;;13.62;100.00;93928.78;5095404;28;20450;-80
2022/09/28 04:37:07;;;;;;;7.50;5.97;;;;;;;13.72;100.00;93938.28;5095405;28;20475;-79
2022/09/28 04:39:33;;;;;;;6.43;5.82;;;;;;;13.82;100.00;93930.97;5094986;28;20441;-78
2022/09/28 04:42:02;;;;;;;7.03;5.80;;;;;;;13.86;100.00;93929.63;5096522;28;20248;-78
2022/09/28 04:44:28;;;;;;;6.20;5.47;;;;;;;13.94;100.00;93934.88;5096124;28;20440;-79
2022/09/28 04:46:55;;;;;;;16.60;7.40;;;;;;;13.97;100.00;93934.53;5096525;28;20429;-78
2022/09/28 04:49:23;;;;;;;10.43;4.90;;;;;;;14.00;100.00;93934.16;5096443;28;20505;-78
2022/09/28 04:51:50;;;;;;;9.73;5.77;;;;;;;14.10;100.00;93932.13;5096152;28;20478;-78
2022/09/28 04:54:16;;;;;;;5.40;4.87;;;;;;;14.16;100.00;93941.97;5096168;28;20446;-77
2022/09/28 04:56:43;;;;;;;5.53;4.60;;;;;;;14.15;100.00;93923.69;5095839;28;20480;-78
2022/09/28 04:59:12;;;;;;;10.17;5.20;;;;;;;14.03;100.00;93925.91;5095862;28;20435;-78
2022/09/28 05:01:39;;;;;;;5.70;4.83;;;;;;;14.20;100.00;93945.09;5095786;28;20432;-79
2022/09/28 05:04:06;;;;;;;6.53;5.73;;;;;;;14.31;100.00;93943.88;5095657;28;20431;-79
2022/09/28 05:06:33;;;;;;;6.00;4.47;;;;;;;14.20;100.00;93924.81;5096007;28;20440;-78
2022/09/28 05:08:59;;;;;;;5.80;4.27;;;;;;;14.24;100.00;93909.44;5095918;28;20499;-77
2022/09/28 05:11:26;;;;;;;6.03;4.60;;;;;;;14.42;100.00;93924.97;5102683;28;20447;-78
2022/09/28 05:13:53;;;;;;;4.93;4.40;;;;;;;14.51;100.00;93943.25;5116183;28;20801;-78
2022/09/28 05:16:23;;;;;;;7.43;5.40;;;;;;;14.62;100.00;93943.81;5098325;28;20575;-78
2022/09/28 05:18:54;;;;;;;8.63;5.57;;;;;;;14.72;100.00;93945.22;5095820;28;20445;-78
2022/09/28 05:21:24;;;;;;;6.67;5.00;;;;;;;15.35;100.00;93946.59;5097077;28;20914;-77
2022/09/28 05:23:51;;;;;;;5.60;5.10;;;;;;;16.28;100.00;93959.16;5096121;28;20462;-78
2022/09/28 05:26:18;;;;;;;8.47;7.03;;;;;;;16.74;100.00;93961.47;5098254;28;20420;-78
2022/09/28 05:28:45;;;;;;;6.67;5.97;;;;;;;17.45;97.67;93962.22;5116012;28;20439;-78
2022/09/28 05:31:11;;;;;;;7.90;6.20;;;;;;;18.07;91.48;93965.81;5115646;28;20446;-79
2022/09/28 05:33:40;;;;;;;9.13;5.60;;;;;;;18.51;89.42;93976.81;5100903;28;20428;-78
2022/09/28 05:36:09;;;;;;;8.67;5.60;;;;;;;18.99;84.59;93971.38;5115280;28;20519;-79
2022/09/28 05:38:36;;;;;;;8.73;5.20;;;;;;;18.49;85.83;93970.84;5095019;28;20483;-78
2022/09/28 05:41:04;;;;;;;6.57;5.90;;;;;;;18.36;85.93;93975.31;5100908;28;20808;-78
2022/09/28 05:43:30;;;;;;;17.43;6.43;;;;;;;17.90;86.77;93965.34;5114283;27;20447;-78
2022/09/28 05:45:59;;;;;;;7.50;6.07;;;;;;;18.15;88.36;93985.06;5114080;28;20496;-77
2022/09/28 05:48:28;;;;;;;11.93;6.77;;;;;;;18.39;87.08;93967.78;5114545;28;20453;-78
2022/09/28 05:50:58;;;;;;;9.30;6.53;;;;;;;18.88;85.04;93980.78;5114431;28;20450;-77
2022/09/28 05:53:25;;;;;;;7.13;6.53;;;;;;;18.87;84.16;93983.66;5114315;28;20478;-78
2022/09/28 05:55:57;;;;;;;12.13;6.83;;;;;;;19.10;82.65;93968.13;5078157;28;20439;-79
2022/09/28 05:58:24;;;;;;;10.03;6.47;;;;;;;19.50;82.84;93976.88;5114135;28;20473;-78
2022/09/28 06:00:54;;;;;;;9.80;6.60;;;;;;;19.70;80.10;93965.44;5114035;28;20458;-78
2022/09/28 06:03:21;;;;;;;7.33;6.60;;;;;;;19.83;80.06;93968.03;5114443;28;20435;-79
2022/09/28 06:05:48;;;;;;;7.90;6.33;;;;;;;20.12;79.56;93990.69;5114041;28;20454;-79
2022/09/28 06:08:16;;;;;;;6.47;5.83;;;;;;;20.45;77.67;93981.78;5114168;28;20447;-79
2022/09/28 06:10:43;;;;;;;8.70;5.60;;;;;;;20.70;77.09;93990.66;5114058;28;20443;-78
2022/09/28 06:13:10;;;;;;;9.63;5.37;;;;;;;21.02;76.71;93978.16;5113681;28;20530;-79
2022/09/28 06:15:37;;;;;;;6.60;6.00;;;;;;;20.86;74.00;93978.69;5078304;28;20496;-78
2022/09/28 06:18:06;;;;;;;8.37;5.77;;;;;;;20.80;75.66;93990.19;5113668;28;20981;-79
2022/09/28 06:20:35;;;;;;;7.00;5.40;;;;;;;20.56;75.39;93984.59;5113634;28;20435;-78
2022/09/28 06:23:02;;;;;;;8.43;5.90;;;;;;;20.13;76.97;93988.84;5114081;28;20447;-78
2022/09/28 06:25:30;;;;;;;14.37;6.40;;;;;;;19.77;79.58;93977.69;5113609;28;20446;-77
2022/09/28 06:27:59;;;;;;;7.70;6.90;;;;;;;19.53;81.00;93983.66;5077637;28;20442;-78
2022/09/28 06:30:27;;;;;;;8.90;8.10;;;;;;;18.97;83.01;93984.06;5113255;28;20445;-77
2022/09/28 06:32:55;;;;;;;12.37;9.47;;;;;;;18.81;85.13;93995.09;5113598;28;20442;-78
2022/09/28 06:35:23;;;;;;;11.00;9.87;;;;;;;18.38;87.16;93971.44;5113506;28;20431;-78
2022/09/28 06:37:50;;;;;;;15.00;10.40;;;;;;;18.55;89.38;93983.38;5113545;28;20531;-77
2022/09/28 06:40:17;;;;;;;9.50;8.60;;;;;;;18.67;88.91;93990.75;5113390;28;20486;-78
2022/09/28 06:42:55;;;;;;;11.23;9.03;;;;;;;18.54;84.96;93997.66;5113627;28;20443;-78
2022/09/28 06:45:23;;;;;;;12.67;8.93;;;;;;;18.42;86.60;93985.97;5113149;28;20446;-78
2022/09/28 06:47:53;;;;;;;10.97;9.70;;;;;;;18.00;88.13;93989.69;5078262;28;20454;-78
2022/09/28 06:50:20;;;;;;;14.73;9.90;;;;;;;17.49;90.77;93983.88;5113384;28;20438;-78
2022/09/28 06:52:50;;;;;;;15.03;9.53;;;;;;;17.28;93.05;93982.09;5113158;28;20445;-78
2022/09/28 06:55:16;;;;;;;11.33;10.13;;;;;;;17.27;94.32;93989.22;5113491;28;20579;-78
2022/09/28 06:57:43;;;;;;;19.00;9.73;;;;;;;17.50;94.54;93993.47;5113434;28;20490;-78
2022/09/28 07:00:13;;;;;;;12.50;10.13;;;;;;;17.28;92.99;93998.81;5077573;28;20439;-78
2022/09/28 07:02:40;;;;;;;11.50;9.87;;;;;;;17.40;93.33;94006.25;5113399;28;20442;-78
2022/09/28 07:05:09;;;;;;;11.03;9.90;;;;;;;17.50;93.16;94006.72;5113510;28;20451;-78
2022/09/28 07:07:36;;;;;;;12.43;9.23;;;;;;;17.86;92.53;93996.75;5113514;28;20469;-78
2022/09/28 07:10:03;;;;;;;10.70;9.33;;;;;;;18.36;92.24;93997.41;5113023;28;20443;-78
2022/09/28 07:12:31;;;;;;;10.97;9.87;;;;;;;18.63;87.60;93992.19;5113400;28;20462;-78
2022/09/28 07:14:57;;;;;;;11.47;10.27;;;;;;;18.87;88.31;93988.97;5112682;28;20443;-78
2022/09/28 07:17:26;;;;;;;12.30;11.00;;;;;;;19.23;88.19;93999.22;5112979;28;20494;-78
2022/09/28 07:19:52;;;;;;;11.77;10.23;;;;;;;19.13;85.88;93999.63;5112835;28;20850;-78
2022/09/28 07:22:20;;;;;;;13.20;11.10;;;;;;;19.17;86.37;94000.03;5113100;28;20493;-77
2022/09/28 07:24:48;;;;;;;15.53;10.67;;;;;;;19.20;86.16;94004.94;5112909;28;20435;-78
2022/09/28 07:27:14;;;;;;;11.90;10.70;;;;;;;19.00;90.51;93993.47;5112883;28;20478;-78
2022/09/28 07:29:41;;;;;;;13.97;10.00;;;;;;;19.14;89.22;93984.50;5113106;28;20447;-77
2022/09/28 07:32:28;;;;;;;15.73;11.43;;;;;;;19.25;89.31;93993.69;5112700;28;20451;-78
2022/09/28 07:34:56;;;;;;;13.10;11.27;;;;;;;19.50;89.03;93994.69;5089891;28;20420;-78
2022/09/28 07:37:25;;;;;;;10.70;9.67;;;;;;;19.92;87.51;94001.41;5090071;28;20455;-78
2022/09/28 07:42:37;;;;;;;10.83;8.90;;;;;;;19.64;84.67;94014.16;5090096;28;20505;-78
2022/09/28 07:45:05;;;;;;;11.27;7.43;;;;;;;19.47;83.75;94011.09;5089969;28;20543;-78
2022/09/28 07:47:32;;;;;;;8.60;7.50;;;;;;;19.44;84.16;94011.50;5090128;28;20520;-78
2022/09/28 07:50:00;;;;;;;8.03;6.30;;;;;;;19.83;85.83;93997.34;5089639;28;20451;-77
2022/09/28 07:52:27;;;;;;;6.93;6.33;;;;;;;19.69;84.18;94009.03;5090002;28;20546;-78
2022/09/28 07:54:54;;;;;;;5.43;4.87;;;;;;;20.22;84.46;94011.56;5089924;28;20439;-78
2022/09/28 07:57:22;;;;;;;7.30;5.83;;;;;;;20.51;81.55;94031.56;5089875;28;20436;-78
2022/09/28 07:59:52;;;;;;;10.00;5.77;;;;;;;20.74;78.85;94026.53;5103795;28;20928;-78
2022/09/28 08:02:19;;;;;;;5.83;4.50;;;;;;;20.83;77.08;94033.28;5112705;28;20929;-80
2022/09/28 08:04:46;;;;;;;4.57;4.17;;;;;;;20.96;74.02;94033.19;5116144;28;20478;-78
2022/09/28 08:07:16;;;;;;;5.37;4.60;;;;;;;20.57;74.49;94033.41;5116205;28;20483;-78
2022/09/28 08:09:42;;;;;;;5.43;4.93;;;;;;;20.39;77.93;94016.22;5116384;28;20445;-78
2022/09/28 08:12:10;;;;;;;6.83;4.10;;;;;;;20.40;78.94;94027.72;5116110;28;20997;-77
2022/09/28 08:14:37;;;;;;;5.57;5.07;;;;;;;20.37;79.95;94033.44;5096999;28;20487;-78
2022/09/28 08:17:05;;;;;;;5.40;5.00;;;;;;;20.46;80.28;94028.72;5116049;28;20474;-78
2022/09/28 08:22:15;;;;;;;5.83;5.03;;;;;;;20.40;79.98;94023.22;5115826;28;20446;-78
2022/09/28 08:24:42;;;;;;;5.20;4.70;;;;;;;20.48;80.41;94024.00;5116234;28;20471;-79
2022/09/28 08:27:09;;;;;;;5.47;4.97;;;;;;;20.41;81.09;94022.16;5116030;28;20438;-78
2022/09/28 08:29:36;;;;;;;6.23;4.33;;;;;;;20.35;79.85;94031.00;5080379;28;20472;-79
2022/09/28 08:32:03;;;;;;;6.00;4.13;;;;;;;20.09;79.56;94025.75;5116028;28;20807;-79
2022/09/28 08:34:29;;;;;;;7.50;4.53;;;;;;;20.01;81.47;94028.66;5115838;28;20438;-78
2022/09/28 08:36:57;;;;;;;9.67;4.07;;;;;;;19.92;80.25;94024.53;5115782;28;20447;-78
2022/09/28 08:39:26;;;;;;;4.43;3.80;;;;;;;19.90;78.35;94024.75;5115802;28;20494;-79
2022/09/28 08:42:05;;;;;;;4.80;3.80;;;;;;;19.72;79.88;94016.63;5116279;28;20471;-78
2022/09/28 08:44:40;;;;;;;9.27;3.93;;;;;;;19.80;81.80;94006.56;5079902;28;20431;-79
2022/09/28 08:48:42;;;;;;;8.80;4.70;;;;;;;19.77;82.38;94003.50;5115941;28;20438;-79
2022/09/28 08:50:03;;;;;;;11.80;5.27;;;;;;;19.79;82.42;94004.09;5115307;28;20441;-78
2022/09/28 08:52:35;;;;;;;6.33;4.80;;;;;;;19.74;81.05;94003.91;5115380;28;20535;-79
2022/09/28 08:55:10;;;;;;;7.47;4.80;;;;;;;19.87;82.52;94003.88;5079544;28;20455;-78
2022/09/28 08:57:44;;;;;;;6.90;5.00;;;;;;;19.85;82.12;93997.94;5115022;28;20529;-78
2022/09/28 09:00:19;;;;;;;9.20;5.00;;;;;;;19.87;81.72;94006.53;5115327;28;20809;-78
2022/09/28 09:02:46;;;;;;;8.87;5.00;;;;;;;19.80;81.06;93995.91;5115186;28;20538;-78
2022/09/28 09:05:17;;;;;;;4.67;4.20;;;;;;;19.53;80.49;93999.63;5114990;28;20447;-78
2022/09/28 09:08:04;;;;;;;7.17;4.63;;;;;;;19.56;80.65;93991.25;5115250;28;20554;-78
2022/09/28 09:10:46;;;;;;;8.80;4.53;;;;;;;19.49;83.03;93991.22;5115146;28;20443;-78
2022/09/28 09:13:32;;;;;;;5.70;4.00;;;;;;;19.42;84.57;93989.59;5114838;28;20439;-79
2022/09/28 09:16:09;;;;;;;4.93;3.80;;;;;;;19.34;83.25;93987.94;5114555;28;20450;-78
2022/09/28 09:18:42;;;;;;;11.07;4.40;;;;;;;19.34;84.42;93995.09;5115056;28;20474;-78
2022/09/28 09:21:15;;;;;;;7.50;4.10;;;;;;;19.36;83.76;93995.72;5115151;28;20500;-78
2022/09/28 09:23:53;;;;;;;14.90;5.37;;;;;;;19.37;84.59;93990.22;5114798;28;20820;-79
2022/09/28 09:26:28;;;;;;;6.40;4.47;;;;;;;19.33;84.63;93982.81;5114748;28;20446;-79
2022/09/28 09:29:04;;;;;;;7.10;4.40;;;;;;;19.51;85.96;93991.00;5114485;28;20442;-78
2022/09/28 09:31:42;;;;;;;9.93;4.73;;;;;;;19.71;86.58;93978.53;5114524;28;20442;-78
2022/09/28 09:34:24;;;;;;;11.90;5.20;;;;;;;19.95;86.23;93984.19;5114868;28;20447;-79
2022/09/28 09:37:03;;;;;;;6.50;4.10;;;;;;;20.18;82.14;93987.19;5114648;28;20959;-79
2022/09/28 09:39:44;;;;;;;5.93;4.07;;;;;;;20.40;81.87;93988.56;5114424;28;20479;-79
2022/09/28 09:42:38;;;;;;;9.73;4.27;;;;;;;20.58;78.74;93982.53;5080543;28;20445;-79
2022/09/28 09:45:24;;;;;;;9.27;4.63;;;;;;;20.69;78.32;93978.38;5081310;28;20799;-78
2022/09/28 09:47:58;;;;;;;6.33;3.90;;;;;;;20.85;78.86;93971.72;5114248;28;20447;-78
2022/09/28 09:50:30;;;;;;;5.50;3.63;;;;;;;20.96;76.31;93965.69;5078430;28;20443;-77
2022/09/28 09:53:05;;;;;;;6.63;4.17;;;;;;;21.00;73.78;93970.38;5114124;28;20439;-78
2022/09/28 09:55:39;;;;;;;3.40;3.10;;;;;;;21.11;74.25;93962.72;5114432;28;20438;-78
2022/09/28 09:58:14;;;;;;;3.50;3.20;;;;;;;21.15;72.95;93969.25;5113851;28;20489;-79
2022/09/28 10:00:45;;;;;;;3.23;2.93;;;;;;;21.27;74.27;93954.19;5079567;28;20542;-78
2022/09/28 10:03:21;;;;;;;10.33;4.00;;;;;;;21.46;72.64;93965.72;5114368;27;20804;-78
2022/09/28 10:05:55;;;;;;;3.87;3.47;;;;;;;21.58;72.86;93955.94;5113760;28;20812;-78
2022/09/28 10:08:24;;;;;;;5.30;3.07;;;;;;;21.71;72.20;93955.84;5113742;28;20940;-78
2022/09/28 10:10:56;;;;;;;3.20;2.90;;;;;;;21.79;70.12;93955.53;5114188;28;20438;-79
2022/09/28 10:13:24;;;;;;;5.93;3.33;;;;;;;21.86;69.75;93963.47;5114435;28;20423;-78
2022/09/28 10:15:54;;;;;;;3.40;3.20;;;;;;;21.79;71.29;93962.72;5113626;28;20443;-78
2022/09/28 10:18:21;;;;;;;8.90;4.70;;;;;;;21.67;68.72;93959.13;5113788;28;20602;-79
2022/09/28 10:20:48;;;;;;;3.50;3.13;;;;;;;21.54;66.25;93963.59;5113702;28;20446;-78
2022/09/28 10:23:21;;;;;;;5.23;3.60;;;;;;;21.41;68.72;93954.91;5113809;28;20435;-78
2022/09/28 10:25:52;;;;;;;7.03;3.97;;;;;;;21.36;68.66;93954.72;5113153;28;20870;-79
2022/09/28 10:28:30;;;;;;;9.03;4.00;;;;;;;21.31;69.61;93961.53;5113780;28;20470;-78
2022/09/28 10:30:56;;;;;;;8.83;4.17;;;;;;;21.17;67.79;93953.84;5079927;28;20446;-78
2022/09/28 10:33:31;;;;;;;4.33;3.20;;;;;;;21.17;68.48;93949.31;5094294;28;20451;-78
2022/09/28 10:36:00;;;;;;;9.73;4.17;;;;;;;21.24;69.76;93944.75;5113518;28;20442;-78
2022/09/28 10:38:28;;;;;;;7.80;3.80;;;;;;;21.41;70.44;93934.34;5113578;28;20489;-78
2022/09/28 10:40:58;;;;;;;7.07;4.07;;;;;;;21.59;69.88;93930.88;5094476;28;20438;-78
2022/09/28 10:43:29;;;;;;;3.50;3.20;;;;;;;21.68;67.73;93934.88;5113552;28;20933;-78
2022/09/28 10:46:06;;;;;;;6.10;2.83;;;;;;;21.76;66.35;93918.59;5113546;28;20454;-78
2022/09/28 10:48:50;;;;;;;6.07;3.00;;;;;;;21.89;65.66;93937.13;5094489;28;20446;-78
2022/09/28 10:51:17;;;;;;;3.07;2.67;;;;;;;21.97;65.79;93922.66;5113769;28;20454;-79
2022/09/28 10:53:59;;;;;;;4.40;3.30;;;;;;;22.13;62.44;93929.28;5113689;28;20959;-78
2022/09/28 10:56:29;;;;;;;3.43;3.13;;;;;;;22.23;63.69;93927.72;5113186;28;20880;-78
2022/09/28 10:58:58;;;;;;;2.97;2.67;;;;;;;22.39;62.15;93917.44;5113047;28;21186;-78
2022/09/28 11:01:32;;;;;;;2.77;2.57;;;;;;;22.49;59.69;93923.06;5113384;28;20441;-79
2022/09/28 11:04:01;;;;;;;4.70;2.73;;;;;;;22.63;63.23;93913.81;5113196;28;20446;-78
2022/09/28 11:06:30;;;;;;;3.33;2.20;;;;;;;22.78;60.31;93902.69;5113717;28;20447;-78
2022/09/28 11:09:00;;;;;;;2.33;2.10;;;;;;;22.86;58.04;93903.22;5112873;28;20431;-78
2022/09/28 11:11:28;;;;;;;2.60;2.23;;;;;;;22.93;59.73;93905.78;5078176;28;20791;-78
2022/09/28 11:14:00;;;;;;;6.33;2.53;;;;;;;23.07;58.56;93901.03;5112919;28;20933;-78
2022/09/28 11:16:29;;;;;;;5.07;2.70;;;;;;;23.05;57.83;93889.75;5112870;28;20992;-79
2022/09/28 11:18:57;;;;;;;2.60;2.40;;;;;;;23.14;56.67;93893.72;5112773;28;20483;-79
2022/09/28 11:21:26;;;;;;;4.47;2.80;;;;;;;23.19;55.96;93877.78;5113011;28;20948;-78
2022/09/28 11:24:00;;;;;;;2.67;2.00;;;;;;;23.29;56.09;93882.53;5112759;28;20446;-79
2022/09/28 11:26:27;;;;;;;6.40;2.80;;;;;;;23.34;55.66;93885.34;5112694;28;20537;-77
2022/09/28 11:28:54;;;;;;;6.20;2.10;;;;;;;23.45;55.38;93876.50;5112364;28;20443;-78
2022/09/28 11:31:28;;;;;;;3.20;1.93;;;;;;;23.36;53.17;93877.88;5112926;28;20442;-78
2022/09/28 11:34:13;;;;;;;2.50;2.30;;;;;;;23.43;53.55;93863.34;5113032;28;20451;-78
2022/09/28 11:37:10;;;;;;;4.50;2.43;;;;;;;23.45;53.43;93860.44;5112935;28;20451;-78
2022/09/28 11:39:45;;;;;;;5.90;2.57;;;;;;;23.50;54.69;93860.53;5115986;28;20480;-78
2022/09/28 11:42:23;;;;;;;2.97;2.47;;;;;;;23.53;53.55;93851.22;5116914;28;20443;-78
2022/09/28 11:45:04;;;;;;;3.40;2.40;;;;;;;23.53;53.23;93852.03;5116927;28;20437;-79
2022/09/28 11:47:47;;;;;;;2.50;2.30;;;;;;;23.49;52.85;93867.75;5116861;28;20435;-78
2022/09/28 11:50:26;;;;;;;4.57;2.67;;;;;;;23.39;52.67;93864.03;5116827;28;20508;-79
2022/09/28 11:53:00;;;;;;;3.00;2.53;;;;;;;23.28;52.06;93863.00;5116502;28;20933;-78